DLH6UA EDDF-LIMC
Flight info
| Callsign | DLH6UA |
|---|---|
| Flight time | 0h 55m |
| Altitude | 33000 |
| Route | ANEKI2L/18 ANEKI Y163 NATOR DCT DITON DCT BASGO Z424 RIXUV |
| Aircraft | A321/M-SDE3FGHIRWY/LB1 |
Departure
| Time | 2026-05-04 07:35 |
|---|---|
| Airport | Frankfurt Main Airport (EDDF) |
Arrival
| Time | 2026-05-04 08:31 |
|---|---|
| Airport | Milan Malpensa International Airport (LIMC) |
| Time | Latitude | Longitude | Altitude | Speed | Heading |
|---|---|---|---|---|---|
| 2026-05-04 07:15 | 50.04540 | 8.56222 | 356 ft | 0 kts | 40° |
| 2026-05-04 07:24 | 50.04522 | 8.56203 | 363 ft | 4 kts | 14° |
| 2026-05-04 07:25 | 50.04499 | 8.56196 | 360 ft | 4 kts | 355° |
| 2026-05-04 07:26 | 50.04516 | 8.56383 | 359 ft | 0 kts | 250° |
| 2026-05-04 07:28 | 50.04513 | 8.56372 | 363 ft | 3 kts | 250° |
| 2026-05-04 07:29 | 50.04496 | 8.56296 | 361 ft | 10 kts | 250° |
| 2026-05-04 07:29 | 50.04468 | 8.56183 | 364 ft | 12 kts | 250° |
| 2026-05-04 07:29 | 50.04436 | 8.56057 | 361 ft | 13 kts | 239° |
| 2026-05-04 07:29 | 50.04354 | 8.56049 | 360 ft | 14 kts | 159° |
| 2026-05-04 07:30 | 50.04264 | 8.56040 | 364 ft | 15 kts | 235° |
| 2026-05-04 07:30 | 50.04225 | 8.55879 | 358 ft | 17 kts | 250° |
| 2026-05-04 07:30 | 50.04180 | 8.55701 | 358 ft | 19 kts | 247° |
| 2026-05-04 07:30 | 50.04136 | 8.55502 | 358 ft | 20 kts | 251° |
| 2026-05-04 07:31 | 50.04087 | 8.55306 | 355 ft | 17 kts | 251° |
| 2026-05-04 07:31 | 50.04046 | 8.55130 | 357 ft | 18 kts | 249° |
| 2026-05-04 07:33 | 50.03628 | 8.53513 | 339 ft | 25 kts | 248° |
| 2026-05-04 07:33 | 50.03565 | 8.53251 | 336 ft | 26 kts | 250° |
| 2026-05-04 07:33 | 50.03501 | 8.52981 | 335 ft | 27 kts | 249° |
| 2026-05-04 07:33 | 50.03444 | 8.52774 | 333 ft | 18 kts | 247° |
| 2026-05-04 07:34 | 50.03407 | 8.52612 | 336 ft | 7 kts | 250° |
| 2026-05-04 07:34 | 50.03370 | 8.52593 | 333 ft | 0 kts | 179° |
| 2026-05-04 07:34 | 50.03360 | 8.52593 | 333 ft | 6 kts | 180° |
| 2026-05-04 07:35 | 50.03124 | 8.52594 | 333 ft | 72 kts | 179° |
| 2026-05-04 07:35 | 50.02379 | 8.52600 | 336 ft | 139 kts | 180° |
| 2026-05-04 07:35 | 50.01235 | 8.52614 | 406 ft | 182 kts | 179° |
| 2026-05-04 07:35 | 49.99977 | 8.52633 | 1174 ft | 181 kts | 179° |
| 2026-05-04 07:36 | 49.98741 | 8.52699 | 2186 ft | 172 kts | 179° |
| 2026-05-04 07:36 | 49.97515 | 8.52791 | 2671 ft | 184 kts | 178° |
| 2026-05-04 07:38 | 49.86675 | 8.53567 | 6985 ft | 238 kts | 180° |
| 2026-05-04 07:38 | 49.85008 | 8.53674 | 7762 ft | 240 kts | 180° |
| 2026-05-04 07:38 | 49.83334 | 8.53788 | 8514 ft | 243 kts | 180° |
| 2026-05-04 07:38 | 49.81656 | 8.53905 | 9266 ft | 245 kts | 180° |
| 2026-05-04 07:39 | 49.79945 | 8.54025 | 10021 ft | 247 kts | 180° |
| 2026-05-04 07:39 | 49.78219 | 8.54130 | 10714 ft | 249 kts | 184° |
| 2026-05-04 07:39 | 49.76441 | 8.53938 | 11097 ft | 266 kts | 187° |
| 2026-05-04 07:39 | 49.74510 | 8.53673 | 11291 ft | 289 kts | 187° |
| 2026-05-04 07:40 | 49.73143 | 8.53481 | 11391 ft | 304 kts | 187° |
| 2026-05-04 07:40 | 49.70956 | 8.53178 | 11517 ft | 326 kts | 187° |
| 2026-05-04 07:40 | 49.67847 | 8.52757 | 11909 ft | 345 kts | 187° |
| 2026-05-04 07:40 | 49.66252 | 8.52547 | 12311 ft | 348 kts | 187° |
| 2026-05-04 07:41 | 49.63819 | 8.52233 | 12952 ft | 352 kts | 186° |
| 2026-05-04 07:41 | 49.61364 | 8.51921 | 13593 ft | 355 kts | 186° |
| 2026-05-04 07:41 | 49.58893 | 8.51602 | 14187 ft | 358 kts | 186° |
| 2026-05-04 07:41 | 49.55577 | 8.51167 | 14962 ft | 361 kts | 186° |
| 2026-05-04 07:42 | 49.53878 | 8.50946 | 15353 ft | 363 kts | 186° |
| 2026-05-04 07:42 | 49.51356 | 8.50618 | 15939 ft | 365 kts | 186° |
| 2026-05-04 07:42 | 49.48849 | 8.50288 | 16527 ft | 367 kts | 186° |
| 2026-05-04 07:42 | 49.46299 | 8.49948 | 17112 ft | 369 kts | 186° |
| 2026-05-04 07:43 | 49.43724 | 8.49606 | 17678 ft | 371 kts | 186° |
| 2026-05-04 07:43 | 49.41140 | 8.49265 | 18230 ft | 374 kts | 186° |
| 2026-05-04 07:43 | 49.38540 | 8.48927 | 18704 ft | 376 kts | 186° |
| 2026-05-04 07:43 | 49.35911 | 8.48589 | 19145 ft | 378 kts | 186° |
| 2026-05-04 07:44 | 49.33302 | 8.48254 | 19600 ft | 381 kts | 187° |
| 2026-05-04 07:44 | 49.30641 | 8.47909 | 20055 ft | 384 kts | 187° |
| 2026-05-04 07:44 | 49.27969 | 8.47559 | 20496 ft | 386 kts | 187° |
| 2026-05-04 07:44 | 49.25279 | 8.47207 | 20940 ft | 389 kts | 187° |
| 2026-05-04 07:45 | 49.22576 | 8.46853 | 21378 ft | 392 kts | 187° |
| 2026-05-04 07:45 | 49.19846 | 8.46496 | 21815 ft | 394 kts | 187° |
| 2026-05-04 07:45 | 49.17100 | 8.46139 | 22249 ft | 397 kts | 187° |
| 2026-05-04 07:45 | 49.14337 | 8.45781 | 22677 ft | 400 kts | 187° |
| 2026-05-04 07:46 | 49.11582 | 8.45428 | 23096 ft | 402 kts | 187° |
| 2026-05-04 07:46 | 49.08784 | 8.45070 | 23517 ft | 405 kts | 187° |
| 2026-05-04 07:46 | 49.05970 | 8.44605 | 23870 ft | 406 kts | 192° |
| 2026-05-04 07:46 | 49.03211 | 8.43670 | 24224 ft | 407 kts | 195° |
| 2026-05-04 07:47 | 49.00438 | 8.42695 | 24589 ft | 409 kts | 195° |
| 2026-05-04 07:47 | 48.97656 | 8.41722 | 24943 ft | 410 kts | 195° |
| 2026-05-04 07:47 | 48.94865 | 8.40750 | 25308 ft | 412 kts | 195° |
| 2026-05-04 07:49 | 48.74981 | 8.33825 | 27815 ft | 425 kts | 195° |
| 2026-05-04 07:49 | 48.72128 | 8.32783 | 28136 ft | 426 kts | 196° |
| 2026-05-04 07:49 | 48.69236 | 8.31712 | 28457 ft | 428 kts | 196° |
| 2026-05-04 07:50 | 48.66327 | 8.30636 | 28744 ft | 430 kts | 196° |
| 2026-05-04 07:50 | 48.63414 | 8.29568 | 29028 ft | 432 kts | 195° |
| 2026-05-04 07:50 | 48.60487 | 8.28500 | 29302 ft | 433 kts | 195° |
| 2026-05-04 07:50 | 48.57554 | 8.27437 | 29616 ft | 433 kts | 195° |
| 2026-05-04 07:51 | 48.54626 | 8.26377 | 30016 ft | 432 kts | 195° |
| 2026-05-04 07:51 | 48.51702 | 8.25364 | 30351 ft | 431 kts | 192° |
| 2026-05-04 07:51 | 48.48703 | 8.24901 | 30669 ft | 433 kts | 184° |
| 2026-05-04 07:51 | 48.45723 | 8.25166 | 30986 ft | 436 kts | 175° |
| 2026-05-04 07:52 | 48.42722 | 8.25907 | 31291 ft | 436 kts | 174° |
| 2026-05-04 07:52 | 48.39729 | 8.26646 | 31613 ft | 434 kts | 174° |
| 2026-05-04 07:52 | 48.36744 | 8.27370 | 31933 ft | 433 kts | 174° |
| 2026-05-04 07:52 | 48.33755 | 8.28091 | 32231 ft | 432 kts | 175° |
| 2026-05-04 07:53 | 48.30829 | 8.28794 | 32549 ft | 431 kts | 175° |
| 2026-05-04 07:54 | 48.10387 | 8.32216 | 33038 ft | 416 kts | 183° |
| 2026-05-04 07:55 | 48.04625 | 8.32289 | 33040 ft | 416 kts | 183° |
| 2026-05-04 07:55 | 47.98831 | 8.32379 | 33034 ft | 415 kts | 183° |
| 2026-05-04 07:56 | 47.93045 | 8.32458 | 33037 ft | 415 kts | 183° |
| 2026-05-04 07:56 | 47.87833 | 8.32535 | 33041 ft | 416 kts | 183° |
| 2026-05-04 07:57 | 47.82039 | 8.32621 | 33047 ft | 416 kts | 183° |
| 2026-05-04 07:57 | 47.76278 | 8.32698 | 33047 ft | 416 kts | 183° |
| 2026-05-04 07:58 | 47.70475 | 8.32785 | 33049 ft | 416 kts | 183° |
| 2026-05-04 07:58 | 47.64685 | 8.32864 | 33054 ft | 416 kts | 183° |
| 2026-05-04 07:59 | 47.58884 | 8.32930 | 33050 ft | 416 kts | 183° |
| 2026-05-04 07:59 | 47.53115 | 8.33008 | 33052 ft | 416 kts | 183° |
| 2026-05-04 08:00 | 47.47314 | 8.33093 | 33041 ft | 416 kts | 183° |
| 2026-05-04 08:02 | 47.24118 | 8.33929 | 33046 ft | 420 kts | 178° |
| 2026-05-04 08:02 | 47.18330 | 8.34871 | 33055 ft | 421 kts | 177° |
| 2026-05-04 08:03 | 47.12507 | 8.35789 | 33064 ft | 421 kts | 178° |
| 2026-05-04 08:03 | 47.06662 | 8.36599 | 33061 ft | 421 kts | 179° |
| 2026-05-04 08:04 | 47.00824 | 8.37366 | 33054 ft | 421 kts | 179° |
| 2026-05-04 08:04 | 46.94981 | 8.38146 | 33055 ft | 421 kts | 179° |
| 2026-05-04 08:05 | 46.89175 | 8.38932 | 33050 ft | 422 kts | 179° |
| 2026-05-04 08:05 | 46.83323 | 8.39728 | 33061 ft | 422 kts | 178° |
| 2026-05-04 08:06 | 46.77461 | 8.40522 | 32718 ft | 422 kts | 178° |
| 2026-05-04 08:06 | 46.74529 | 8.40917 | 32455 ft | 423 kts | 178° |
| 2026-05-04 08:06 | 46.71590 | 8.41313 | 32186 ft | 423 kts | 178° |
| 2026-05-04 08:08 | 46.51497 | 8.44011 | 28146 ft | 402 kts | 178° |
| 2026-05-04 08:08 | 46.48752 | 8.44383 | 27619 ft | 399 kts | 178° |
| 2026-05-04 08:10 | 46.27197 | 8.47246 | 23374 ft | 379 kts | 177° |
| 2026-05-04 08:11 | 46.24576 | 8.47600 | 22836 ft | 376 kts | 177° |
| 2026-05-04 08:11 | 46.19441 | 8.48338 | 21816 ft | 369 kts | 176° |
| 2026-05-04 08:11 | 46.16898 | 8.48708 | 21324 ft | 366 kts | 176° |
| 2026-05-04 08:12 | 46.14373 | 8.49074 | 20855 ft | 363 kts | 176° |
| 2026-05-04 08:12 | 46.11871 | 8.49482 | 20391 ft | 360 kts | 172° |
| 2026-05-04 08:12 | 46.09432 | 8.50387 | 19934 ft | 360 kts | 162° |
| 2026-05-04 08:12 | 46.07125 | 8.51642 | 19487 ft | 357 kts | 162° |
| 2026-05-04 08:13 | 46.04803 | 8.52901 | 19028 ft | 354 kts | 162° |
| 2026-05-04 08:13 | 46.02502 | 8.54135 | 18575 ft | 351 kts | 162° |
| 2026-05-04 08:13 | 46.00225 | 8.55354 | 18269 ft | 342 kts | 162° |
| 2026-05-04 08:13 | 45.98037 | 8.56530 | 18125 ft | 328 kts | 162° |
| 2026-05-04 08:14 | 45.96187 | 8.57523 | 17951 ft | 319 kts | 162° |
| 2026-05-04 08:14 | 45.94148 | 8.58616 | 17653 ft | 313 kts | 162° |
| 2026-05-04 08:14 | 45.92143 | 8.59691 | 17386 ft | 310 kts | 162° |
| 2026-05-04 08:16 | 45.79891 | 8.72406 | 14908 ft | 312 kts | 145° |
| 2026-05-04 08:16 | 45.78197 | 8.74364 | 14438 ft | 312 kts | 145° |
| 2026-05-04 08:16 | 45.76488 | 8.76289 | 13954 ft | 311 kts | 150° |
| 2026-05-04 08:17 | 45.74626 | 8.77800 | 13555 ft | 305 kts | 156° |
| 2026-05-04 08:17 | 45.72761 | 8.79229 | 13082 ft | 304 kts | 156° |
| 2026-05-04 08:17 | 45.70937 | 8.80635 | 12746 ft | 298 kts | 155° |
| 2026-05-04 08:17 | 45.69118 | 8.82036 | 12331 ft | 296 kts | 155° |
| 2026-05-04 08:19 | 45.57049 | 8.88962 | 10314 ft | 251 kts | 170° |
| 2026-05-04 08:19 | 45.55337 | 8.89430 | 10020 ft | 249 kts | 170° |
| 2026-05-04 08:20 | 45.53635 | 8.89894 | 9694 ft | 249 kts | 170° |
| 2026-05-04 08:20 | 45.51932 | 8.90357 | 9406 ft | 247 kts | 170° |
| 2026-05-04 08:20 | 45.50248 | 8.90814 | 9113 ft | 246 kts | 169° |
| 2026-05-04 08:20 | 45.48597 | 8.91265 | 8882 ft | 241 kts | 169° |
| 2026-05-04 08:21 | 45.46958 | 8.91712 | 8589 ft | 240 kts | 169° |
| 2026-05-04 08:21 | 45.45310 | 8.92162 | 8320 ft | 240 kts | 169° |
| 2026-05-04 08:21 | 45.43686 | 8.92603 | 7990 ft | 240 kts | 169° |
| 2026-05-04 08:21 | 45.42046 | 8.93049 | 7722 ft | 240 kts | 169° |
| 2026-05-04 08:22 | 45.40405 | 8.93498 | 7422 ft | 239 kts | 169° |
| 2026-05-04 08:22 | 45.38784 | 8.93943 | 7092 ft | 236 kts | 169° |
| 2026-05-04 08:24 | 45.31624 | 8.87651 | 5709 ft | 218 kts | 258° |
| 2026-05-04 08:24 | 45.31517 | 8.85453 | 5563 ft | 228 kts | 276° |
| 2026-05-04 08:24 | 45.31799 | 8.84008 | 5464 ft | 231 kts | 293° |
| 2026-05-04 08:24 | 45.32785 | 8.82204 | 5302 ft | 233 kts | 321° |
| 2026-05-04 08:25 | 45.34254 | 8.81238 | 5163 ft | 235 kts | 347° |
| 2026-05-04 08:25 | 45.36374 | 8.80660 | 5011 ft | 234 kts | 349° |
| 2026-05-04 08:25 | 45.37980 | 8.80232 | 4910 ft | 235 kts | 348° |
| 2026-05-04 08:25 | 45.39031 | 8.79945 | 4857 ft | 227 kts | 349° |
| 2026-05-04 08:26 | 45.40568 | 8.79523 | 4790 ft | 225 kts | 348° |
| 2026-05-04 08:27 | 45.50964 | 8.76672 | 2881 ft | 206 kts | 347° |
| 2026-05-04 08:28 | 45.52387 | 8.76280 | 2572 ft | 210 kts | 347° |
| 2026-05-04 08:28 | 45.53817 | 8.75888 | 2310 ft | 210 kts | 348° |
| 2026-05-04 08:28 | 45.55234 | 8.75498 | 2027 ft | 206 kts | 347° |
| 2026-05-04 08:28 | 45.56639 | 8.75111 | 1749 ft | 205 kts | 348° |
| 2026-05-04 08:29 | 45.58043 | 8.74725 | 1459 ft | 203 kts | 347° |
| 2026-05-04 08:29 | 45.59352 | 8.74365 | 1185 ft | 180 kts | 348° |
| 2026-05-04 08:29 | 45.60522 | 8.74044 | 939 ft | 164 kts | 348° |
| 2026-05-04 08:31 | 45.63324 | 8.72609 | 719 ft | 15 kts | 215° |
| 2026-05-04 08:33 | 45.62692 | 8.72102 | 716 ft | 13 kts | 230° |
| 2026-05-04 08:33 | 45.62671 | 8.71974 | 717 ft | 14 kts | 258° |
| 2026-05-04 08:35 | 45.62548 | 8.71670 | 719 ft | 0 kts | 171° |